Time;durP1;ratioP1;P1;durP2;ratioP2;P2;SDS_P1;SDS_P2;PMS_P1;PMS_P2;Temp;Humidity;BMP_temperature;BMP_pressure;BME280_temperature;BME280_humidity;BME280_pressure;Samples;Min_cycle;Max_cycle;Signal;HPM_P1;HPM_P2
2022/11/30 00:02:57;;;;;;;36.30;20.90;;;;;;;1.89;76.56;101265.67;126491;1282;98002;-75
2022/11/30 00:06:04;;;;;;;37.50;21.30;;;;;;;1.89;76.55;101263.92;126646;1297;99132;-75
2022/11/30 00:09:07;;;;;;;40.90;22.20;;;;;;;1.88;76.53;101268.37;126635;1296;98642;-75
2022/11/30 00:12:10;;;;;;;33.70;19.90;;;;;;;1.88;76.48;101267.67;126651;1297;98076;-76
2022/11/30 00:15:16;;;;;;;33.50;19.40;;;;;;;1.83;76.58;101269.63;126475;1288;98002;-76
2022/11/30 00:18:18;;;;;;;32.60;18.70;;;;;;;1.75;76.44;101270.92;126597;1298;98001;-76
2022/11/30 00:21:21;;;;;;;32.00;19.00;;;;;;;1.69;76.71;101272.42;126526;1284;99135;-76
2022/11/30 00:24:24;;;;;;;34.00;18.20;;;;;;;1.64;76.58;101271.79;126636;1289;98051;-77
2022/11/30 00:27:27;;;;;;;31.40;19.30;;;;;;;1.59;76.61;101275.16;126637;1298;98378;-76
2022/11/30 00:30:30;;;;;;;32.30;18.50;;;;;;;1.54;76.74;101276.23;126479;1288;98033;-76
2022/11/30 00:33:33;;;;;;;36.30;19.90;;;;;;;1.53;76.73;101277.84;126575;1297;98003;-76
2022/11/30 00:36:36;;;;;;;31.10;17.70;;;;;;;1.59;76.70;101279.86;126627;1297;99177;-76
2022/11/30 00:39:39;;;;;;;42.90;26.20;;;;;;;1.67;76.76;101281.28;126656;1288;98578;-76
2022/11/30 00:42:42;;;;;;;43.00;25.50;;;;;;;1.75;76.68;101278.63;126538;1290;99138;-76
2022/11/30 00:45:44;;;;;;;46.40;27.30;;;;;;;1.82;76.50;101278.46;126481;1288;98761;-76
2022/11/30 00:48:47;;;;;;;107.30;64.00;;;;;;;1.86;76.65;101279.33;126530;1296;98024;-76
2022/11/30 00:51:50;;;;;;;52.50;29.50;;;;;;;1.87;76.65;101277.35;126506;1291;99253;-76
2022/11/30 00:54:52;;;;;;;33.00;19.50;;;;;;;1.87;76.66;101277.36;126496;1297;98018;-75
2022/11/30 00:57:55;;;;;;;33.90;19.20;;;;;;;1.86;76.82;101275.81;126653;1293;98027;-76
2022/11/30 01:00:58;;;;;;;41.60;23.10;;;;;;;1.85;76.73;101277.08;126560;1288;111022;-76
2022/11/30 01:04:01;;;;;;;31.80;18.30;;;;;;;1.86;76.62;101278.64;126583;1297;99050;-75
2022/11/30 01:07:03;;;;;;;32.30;18.30;;;;;;;1.83;76.47;101276.28;126504;1282;99163;-75
2022/11/30 01:10:08;;;;;;;29.40;17.50;;;;;;;1.78;76.64;101278.81;126525;1296;98052;-76
2022/11/30 01:13:12;;;;;;;31.90;19.60;;;;;;;1.72;76.62;101279.82;126546;1298;111068;-76
2022/11/30 01:16:19;;;;;;;32.90;18.70;;;;;;;1.67;76.56;101278.13;126537;1296;111176;-75
2022/11/30 01:19:23;;;;;;;31.10;17.30;;;;;;;1.63;76.72;101280.41;126568;1296;111228;-78
2022/11/30 01:22:25;;;;;;;51.30;28.80;;;;;;;1.63;76.67;101282.89;126494;1304;133734;-78
2022/11/30 01:25:28;;;;;;;29.80;16.70;;;;;;;1.60;76.60;101284.40;126693;1290;98903;-76
2022/11/30 01:28:31;;;;;;;26.10;15.20;;;;;;;1.61;76.73;101288.36;126891;1278;98124;-77
2022/11/30 01:31:35;;;;;;;30.60;17.00;;;;;;;1.67;76.74;101289.50;127015;1276;99111;-76
2022/11/30 01:34:38;;;;;;;36.60;19.70;;;;;;;1.75;76.68;101287.55;127040;1294;111128;-76
2022/11/30 01:37:41;;;;;;;30.30;18.40;;;;;;;1.79;76.73;101288.41;126804;1295;98423;-77
2022/11/30 01:40:50;;;;;;;34.80;20.40;;;;;;;1.81;76.56;101294.99;126873;1280;98069;-77
2022/11/30 01:43:55;;;;;;;42.70;24.30;;;;;;;1.83;76.81;101299.33;126878;1286;111211;-77
2022/11/30 01:47:00;;;;;;;32.80;18.80;;;;;;;1.84;76.86;101301.87;126808;1293;111276;-76
2022/11/30 01:50:09;;;;;;;30.30;16.70;;;;;;;1.77;76.68;101306.59;126802;1278;111246;-75
2022/11/30 01:53:12;;;;;;;29.50;17.70;;;;;;;1.76;76.62;101302.10;126799;1296;111244;-75
2022/11/30 01:56:16;;;;;;;31.00;17.50;;;;;;;1.74;76.69;101304.26;126770;1295;111163;-75
2022/11/30 01:59:21;;;;;;;30.30;17.60;;;;;;;1.74;76.69;101302.16;126856;1294;111057;-76
2022/11/30 02:02:33;;;;;;;34.80;18.50;;;;;;;1.71;76.78;101301.62;126881;1293;111737;-75
2022/11/30 02:05:37;;;;;;;32.80;19.50;;;;;;;1.67;76.86;101298.62;126760;1278;111223;-75
2022/11/30 02:08:40;;;;;;;34.20;19.10;;;;;;;1.70;76.93;101301.13;126956;1287;111213;-76
2022/11/30 02:11:43;;;;;;;27.80;15.10;;;;;;;1.72;76.74;101307.88;126874;1296;97981;-76
2022/11/30 02:14:50;;;;;;;26.80;15.90;;;;;;;1.77;76.83;101312.02;126873;1282;98047;-75
2022/11/30 02:18:04;;;;;;;27.10;16.20;;;;;;;1.82;76.85;101311.44;126806;1296;111177;-76
2022/11/30 02:21:15;;;;;;;33.20;18.60;;;;;;;1.87;76.89;101312.27;126872;1295;111209;-73
2022/11/30 02:24:34;;;;;;;31.30;17.10;;;;;;;1.89;76.43;101310.40;126890;1294;111254;-76
2022/11/30 02:27:53;;;;;;;30.70;18.90;;;;;;;1.92;76.67;101313.78;126993;1295;111199;-76
2022/11/30 02:30:58;;;;;;;30.00;17.50;;;;;;;1.93;76.72;101307.27;127027;1295;111317;-77
2022/11/30 02:34:04;;;;;;;31.00;18.30;;;;;;;1.89;76.67;101310.77;127023;1295;111203;-76
2022/11/30 02:37:09;;;;;;;31.70;17.60;;;;;;;1.87;76.74;101313.88;126987;1295;111117;-76
2022/11/30 02:40:16;;;;;;;31.30;18.40;;;;;;;1.84;76.74;101312.91;126799;1295;112429;-77
2022/11/30 02:43:21;;;;;;;26.40;16.30;;;;;;;1.82;76.65;101316.88;126849;1294;111104;-76
2022/11/30 02:46:32;;;;;;;27.30;16.00;;;;;;;1.79;76.85;101313.52;126800;1286;112345;-76
2022/11/30 02:49:40;;;;;;;29.70;17.00;;;;;;;1.79;76.77;101309.30;126873;1286;111186;-76
2022/11/30 02:52:44;;;;;;;32.50;17.90;;;;;;;1.79;76.93;101311.09;126813;1296;111097;-75
2022/11/30 02:55:47;;;;;;;30.00;16.90;;;;;;;1.77;76.97;101306.58;126866;1291;111355;-76
2022/11/30 02:58:50;;;;;;;28.10;15.10;;;;;;;1.79;77.08;101307.72;126894;1280;99117;-76
2022/11/30 03:01:53;;;;;;;28.70;17.40;;;;;;;1.84;76.76;101306.60;127020;1294;111107;-74
2022/11/30 03:04:56;;;;;;;28.90;16.80;;;;;;;1.90;76.72;101306.16;126960;1294;98757;-73
2022/11/30 03:07:58;;;;;;;31.80;17.40;;;;;;;1.93;76.66;101304.45;126863;1295;98025;-72
2022/11/30 03:11:02;;;;;;;27.60;16.60;;;;;;;1.91;76.72;101309.07;126956;1282;99060;-73
2022/11/30 03:14:04;;;;;;;28.50;16.70;;;;;;;1.91;76.69;101314.54;126978;1294;99140;-73
2022/11/30 03:17:07;;;;;;;33.00;19.40;;;;;;;1.90;76.78;101315.48;126828;1282;98059;-73
2022/11/30 03:20:10;;;;;;;35.70;20.50;;;;;;;1.86;76.73;101315.46;126848;1294;98065;-71
2022/11/30 03:23:13;;;;;;;31.70;18.00;;;;;;;1.85;76.73;101318.17;126956;1295;98080;-72
2022/11/30 03:26:16;;;;;;;31.30;17.50;;;;;;;1.83;76.82;101318.96;126933;1295;97994;-72
2022/11/30 03:29:19;;;;;;;28.90;17.00;;;;;;;1.81;76.84;101327.45;126908;1272;99052;-72
2022/11/30 03:32:21;;;;;;;29.40;17.40;;;;;;;1.81;76.80;101328.15;127169;1279;98744;-72
2022/11/30 03:35:24;;;;;;;29.10;16.40;;;;;;;1.78;76.86;101327.27;127102;1282;98097;-72
2022/11/30 03:38:27;;;;;;;28.70;16.90;;;;;;;1.73;76.94;101328.52;127016;1295;98061;-72
2022/11/30 03:41:30;;;;;;;25.20;14.10;;;;;;;1.72;76.72;101335.96;126885;1282;97957;-72
2022/11/30 03:44:33;;;;;;;25.90;15.30;;;;;;;1.75;76.77;101337.03;126591;1294;98958;-71
2022/11/30 03:47:35;;;;;;;30.20;16.80;;;;;;;1.82;76.81;101341.63;126688;1291;97993;-74
2022/11/30 03:50:38;;;;;;;27.30;15.60;;;;;;;1.85;76.78;101338.84;126696;1295;107443;-74
2022/11/30 03:53:41;;;;;;;24.20;14.90;;;;;;;1.85;76.75;101338.33;126773;1294;99027;-73
2022/11/30 03:56:44;;;;;;;24.70;15.60;;;;;;;1.85;76.64;101339.89;126583;1281;98022;-74
2022/11/30 03:59:46;;;;;;;26.70;16.00;;;;;;;1.86;76.58;101345.48;126643;1281;98041;-76
2022/11/30 04:02:49;;;;;;;30.70;17.50;;;;;;;1.84;76.76;101342.45;126773;1275;99084;-74
2022/11/30 04:05:51;;;;;;;32.90;18.30;;;;;;;1.85;76.57;101341.84;126643;1294;98052;-75
2022/11/30 04:08:54;;;;;;;25.50;15.60;;;;;;;1.84;76.66;101346.77;126952;1295;97975;-76
2022/11/30 04:11:57;;;;;;;25.30;15.40;;;;;;;1.81;76.66;101347.13;126959;1287;99221;-75
2022/11/30 04:15:00;;;;;;;26.10;15.40;;;;;;;1.75;76.77;101345.44;126896;1289;98799;-75
2022/11/30 04:18:03;;;;;;;42.00;21.10;;;;;;;1.73;76.71;101347.98;126893;1274;98008;-75
2022/11/30 04:21:07;;;;;;;44.00;22.30;;;;;;;1.70;76.85;101349.52;126569;1294;98588;-74
2022/11/30 04:24:10;;;;;;;26.80;15.90;;;;;;;1.71;76.65;101352.66;126656;1294;97998;-75
2022/11/30 04:27:12;;;;;;;22.00;12.70;;;;;;;1.73;76.80;101347.13;126620;1295;99175;-75
2022/11/30 04:30:16;;;;;;;24.80;14.50;;;;;;;1.78;76.94;101348.14;126676;1294;98645;-75
2022/11/30 04:33:18;;;;;;;21.90;13.80;;;;;;;1.85;76.62;101347.60;126678;1288;99134;-75
2022/11/30 04:36:21;;;;;;;23.60;14.50;;;;;;;1.90;76.67;101345.85;126621;1288;98015;-75
2022/11/30 04:39:24;;;;;;;25.10;14.10;;;;;;;1.88;76.49;101349.05;126592;1294;99134;-74
2022/11/30 04:42:26;;;;;;;39.90;17.70;;;;;;;1.88;76.47;101352.94;126556;1294;99138;-74
2022/11/30 04:45:29;;;;;;;27.10;15.80;;;;;;;1.87;76.64;101353.68;126555;1294;98070;-76
2022/11/30 04:48:32;;;;;;;36.60;18.90;;;;;;;1.85;76.68;101353.96;126571;1287;99129;-74
2022/11/30 04:51:35;;;;;;;35.30;17.40;;;;;;;1.84;76.59;101347.86;126620;1282;98074;-75
2022/11/30 04:54:38;;;;;;;45.90;20.70;;;;;;;1.82;76.50;101355.30;126671;1287;98477;-74
2022/11/30 04:57:40;;;;;;;30.80;16.70;;;;;;;1.80;76.46;101356.30;126731;1297;98735;-74
2022/11/30 05:00:43;;;;;;;33.50;17.90;;;;;;;1.76;76.53;101359.25;126651;1295;98440;-76
2022/11/30 05:03:46;;;;;;;33.30;17.70;;;;;;;1.72;76.28;101364.52;126654;1294;99108;-75
2022/11/30 05:06:48;;;;;;;25.60;14.70;;;;;;;1.67;76.34;101366.14;126689;1291;99158;-75
2022/11/30 05:09:51;;;;;;;24.40;14.60;;;;;;;1.63;76.49;101364.06;126646;1281;98019;-74
2022/11/30 05:12:55;;;;;;;22.50;13.40;;;;;;;1.57;76.56;101373.23;126565;1294;98079;-74
2022/11/30 05:15:58;;;;;;;20.30;11.40;;;;;;;1.55;76.41;101375.63;126689;1293;99049;-74
2022/11/30 05:19:01;;;;;;;19.90;12.50;;;;;;;1.57;76.48;101376.63;126751;1272;101494;-74
2022/11/30 05:22:03;;;;;;;20.10;12.60;;;;;;;1.62;76.48;101378.86;126839;1291;98060;-74
2022/11/30 05:25:08;;;;;;;21.20;12.30;;;;;;;1.65;76.51;101379.07;126860;1282;98751;-74
2022/11/30 05:28:11;;;;;;;21.90;13.40;;;;;;;1.64;76.40;101377.34;126816;1292;98748;-74
2022/11/30 05:31:14;;;;;;;21.00;13.90;;;;;;;1.65;76.38;101376.23;126815;1299;99055;-74
2022/11/30 05:34:16;;;;;;;24.60;14.40;;;;;;;1.65;76.42;101379.95;126843;1279;98802;-74
2022/11/30 05:37:19;;;;;;;24.20;14.10;;;;;;;1.64;76.34;101379.63;126835;1282;97973;-74
2022/11/30 05:40:22;;;;;;;22.70;14.10;;;;;;;1.63;76.32;101384.25;126830;1292;99137;-75
2022/11/30 05:43:24;;;;;;;22.20;14.00;;;;;;;1.61;76.34;101387.64;126817;1287;98008;-75
2022/11/30 05:46:27;;;;;;;23.10;14.50;;;;;;;1.59;76.40;101388.77;126798;1285;99027;-74
2022/11/30 05:49:30;;;;;;;46.70;26.30;;;;;;;1.57;76.27;101386.44;126881;1296;99131;-74
2022/11/30 05:52:32;;;;;;;41.10;24.90;;;;;;;1.55;76.47;101385.83;126876;1285;98656;-75
2022/11/30 05:55:35;;;;;;;48.80;24.40;;;;;;;1.51;76.54;101387.92;126823;1295;111229;-75
2022/11/30 05:58:38;;;;;;;30.40;16.60;;;;;;;1.52;76.53;101386.48;126812;1279;98046;-75
2022/11/30 06:01:41;;;;;;;38.30;20.20;;;;;;;1.56;76.36;101385.41;126864;1296;98472;-75
2022/11/30 06:04:43;;;;;;;42.70;21.50;;;;;;;1.61;76.51;101383.79;126919;1296;99156;-75
2022/11/30 06:07:46;;;;;;;45.10;26.10;;;;;;;1.65;76.30;101383.98;126930;1295;99076;-75
2022/11/30 06:10:48;;;;;;;53.30;24.70;;;;;;;1.67;76.27;101391.43;126830;1288;98464;-74
2022/11/30 06:13:51;;;;;;;33.50;16.50;;;;;;;1.67;76.18;101393.52;126679;1280;98645;-74
2022/11/30 06:16:54;;;;;;;51.20;21.50;;;;;;;1.66;76.20;101396.20;126825;1281;99147;-76
2022/11/30 06:19:57;;;;;;;33.50;17.00;;;;;;;1.64;76.28;101395.23;126948;1288;98538;-74
2022/11/30 06:23:00;;;;;;;26.60;16.40;;;;;;;1.62;75.98;101398.29;126740;1288;107371;-75
2022/11/30 06:26:05;;;;;;;27.40;14.90;;;;;;;1.58;76.04;101400.73;126738;1280;97976;-74
2022/11/30 06:29:09;;;;;;;30.90;16.30;;;;;;;1.54;76.05;101401.30;126755;1287;107435;-75
2022/11/30 06:32:11;;;;;;;34.40;18.60;;;;;;;1.48;76.09;101399.42;126889;1296;107479;-79
2022/11/30 06:35:15;;;;;;;30.80;15.70;;;;;;;1.47;76.09;101402.84;126833;1281;97992;-75
2022/11/30 06:38:18;;;;;;;41.80;21.10;;;;;;;1.45;76.13;101404.10;126871;1280;98016;-76
2022/11/30 06:41:20;;;;;;;35.00;18.20;;;;;;;1.43;76.02;101409.33;126965;1301;107603;-74
2022/11/30 06:44:23;;;;;;;27.80;14.30;;;;;;;1.40;76.06;101412.23;126853;1296;98395;-85
2022/11/30 06:47:27;;;;;;;27.00;14.60;;;;;;;1.40;76.18;101415.41;126904;1295;98008;-85
2022/11/30 06:50:29;;;;;;;27.90;13.70;;;;;;;1.42;76.20;101418.13;126959;1295;101459;-85
2022/11/30 06:53:32;;;;;;;23.80;13.90;;;;;;;1.48;76.13;101424.86;126950;1287;97982;-83
2022/11/30 06:56:35;;;;;;;25.30;14.70;;;;;;;1.54;76.06;101427.91;127024;1288;97989;-82
2022/11/30 06:59:41;;;;;;;27.90;17.30;;;;;;;1.59;76.05;101429.66;126756;1278;99019;-83
2022/11/30 07:02:44;;;;;;;24.70;14.20;;;;;;;1.60;75.93;101429.44;126804;1301;107417;-85
2022/11/30 07:05:47;;;;;;;26.90;15.70;;;;;;;1.60;75.86;101429.09;126774;1287;107679;-86
2022/11/30 07:08:49;;;;;;;25.00;14.80;;;;;;;1.60;75.77;101429.79;126901;1285;98295;-85
2022/11/30 07:11:52;;;;;;;26.90;16.50;;;;;;;1.58;75.86;101431.98;126950;1276;99183;-84
2022/11/30 07:14:55;;;;;;;52.20;31.20;;;;;;;1.62;75.92;101437.41;126962;1273;98652;-86
2022/11/30 07:18:00;;;;;;;32.90;19.50;;;;;;;1.64;75.99;101436.46;126902;1282;98096;-86
2022/11/30 07:21:04;;;;;;;29.60;17.70;;;;;;;1.64;75.91;101437.54;126894;1295;107525;-86
2022/11/30 07:27:31;;;;;;;30.40;18.10;;;;;;;1.62;75.81;101433.39;126912;1297;107212;-85
2022/11/30 07:30:34;;;;;;;28.30;17.00;;;;;;;1.63;75.95;101434.91;126917;1293;99188;-84
2022/11/30 07:33:37;;;;;;;29.00;15.60;;;;;;;1.61;75.81;101436.59;126945;1288;99142;-84
2022/11/30 07:36:39;;;;;;;28.80;16.00;;;;;;;1.62;75.87;101436.73;126851;1278;99129;-86
2022/11/30 07:39:42;;;;;;;20.80;12.40;;;;;;;1.67;76.00;101438.27;127090;1287;98005;-82
2022/11/30 07:42:45;;;;;;;26.70;14.70;;;;;;;1.78;75.82;101442.34;126939;1278;99023;-85
2022/11/30 07:45:52;;;;;;;26.50;15.30;;;;;;;1.87;75.94;101444.91;126861;1281;99128;-84
2022/11/30 07:48:55;;;;;;;26.30;16.60;;;;;;;1.95;75.67;101446.15;126903;1296;107548;-84
2022/11/30 07:51:57;;;;;;;24.70;14.90;;;;;;;2.00;75.79;101442.23;126946;1287;97972;-84
2022/11/30 07:55:00;;;;;;;28.00;16.30;;;;;;;2.06;75.65;101445.48;126966;1275;99594;-85
2022/11/30 07:58:03;;;;;;;27.10;15.60;;;;;;;2.08;75.84;101445.04;126972;1299;99075;-86
2022/11/30 08:01:08;;;;;;;25.90;14.70;;;;;;;2.12;75.72;101446.80;127061;1291;99110;-85
2022/11/30 08:04:12;;;;;;;21.50;13.90;;;;;;;2.18;75.46;101446.88;127211;1296;107511;-86
2022/11/30 08:07:15;;;;;;;22.00;14.00;;;;;;;2.22;75.38;101445.45;127093;1295;108044;-85
2022/11/30 08:10:18;;;;;;;21.90;14.20;;;;;;;2.23;75.26;101446.48;127141;1302;99240;-85
2022/11/30 08:13:20;;;;;;;23.30;14.50;;;;;;;2.23;75.35;101449.98;127047;1296;99160;-87
2022/11/30 08:16:25;;;;;;;21.30;13.60;;;;;;;2.23;75.15;101442.08;127026;1285;97965;-87
2022/11/30 08:19:28;;;;;;;22.40;14.30;;;;;;;2.25;75.38;101442.34;127116;1295;107556;-83
2022/11/30 08:22:31;;;;;;;25.80;14.70;;;;;;;2.28;75.26;101444.10;127096;1292;98767;-82
2022/11/30 08:25:35;;;;;;;24.70;15.10;;;;;;;2.28;75.25;101448.71;127015;1295;97965;-86
2022/11/30 08:28:38;;;;;;;26.90;15.50;;;;;;;2.25;75.00;101446.71;126999;1295;107556;-83
2022/11/30 08:31:41;;;;;;;31.10;18.40;;;;;;;2.22;75.23;101447.20;127062;1296;107537;-83
2022/11/30 08:34:43;;;;;;;29.30;17.00;;;;;;;2.25;75.39;101450.58;127135;1288;99133;-84
2022/11/30 08:37:46;;;;;;;20.50;12.80;;;;;;;2.36;75.38;101447.98;127136;1290;98585;-82
2022/11/30 08:40:49;;;;;;;21.30;12.90;;;;;;;2.46;74.91;101444.17;127057;1299;99135;-83
2022/11/30 08:43:53;;;;;;;25.50;14.60;;;;;;;2.54;74.96;101442.55;127155;1288;99141;-86
2022/11/30 08:46:55;;;;;;;22.80;14.20;;;;;;;2.63;74.84;101439.18;127175;1285;98000;-84
2022/11/30 08:49:59;;;;;;;30.00;17.80;;;;;;;2.67;74.70;101440.91;127123;1295;99154;-86
2022/11/30 08:53:02;;;;;;;26.50;16.20;;;;;;;2.73;74.59;101444.65;127145;1293;107557;-84
2022/11/30 08:56:08;;;;;;;25.40;16.20;;;;;;;2.76;74.53;101442.39;127167;1281;99170;-84
2022/11/30 08:59:10;;;;;;;24.90;14.60;;;;;;;2.75;74.63;101444.38;126950;1299;107543;-83
2022/11/30 09:02:16;;;;;;;20.90;13.00;;;;;;;2.76;74.37;101443.67;127056;1299;97986;-83
2022/11/30 09:05:19;;;;;;;25.10;14.90;;;;;;;2.73;74.47;101440.79;127093;1292;107381;-87
2022/11/30 09:08:21;;;;;;;24.00;14.20;;;;;;;2.76;74.46;101438.70;127078;1289;98740;-85
2022/11/30 09:11:26;;;;;;;32.80;18.40;;;;;;;2.78;74.33;101443.21;126973;1293;99154;-87
2022/11/30 09:14:29;;;;;;;27.20;15.80;;;;;;;2.82;74.48;101443.88;127100;1292;107733;-84
2022/11/30 09:17:32;;;;;;;62.80;26.30;;;;;;;2.85;74.24;101443.92;127149;1276;99212;-87
2022/11/30 09:20:35;;;;;;;58.40;24.60;;;;;;;2.87;74.36;101444.38;127055;1276;98204;-83
2022/11/30 09:23:38;;;;;;;51.70;22.90;;;;;;;2.89;74.29;101448.45;127163;1295;98528;-82
2022/11/30 09:26:41;;;;;;;47.40;24.20;;;;;;;2.90;74.12;101450.90;127102;1291;98840;-83
2022/11/30 09:29:43;;;;;;;31.70;17.20;;;;;;;2.90;73.98;101451.05;127254;1277;98066;-83
2022/11/30 09:32:46;;;;;;;24.70;15.10;;;;;;;2.86;73.42;101447.89;127119;1299;99159;-84
2022/11/30 09:35:56;;;;;;;23.30;14.90;;;;;;;2.84;73.89;101447.84;127041;1295;98017;-84
2022/11/30 09:38:58;;;;;;;31.10;18.10;;;;;;;2.83;73.62;101441.39;127228;1296;108056;-85
2022/11/30 09:42:22;;;;;;;34.20;19.40;;;;;;;2.81;73.31;101446.04;127010;1285;98001;-87
2022/11/30 09:45:30;;;;;;;26.40;16.10;;;;;;;2.76;73.66;101450.13;127050;1299;107592;-84
2022/11/30 09:48:47;;;;;;;23.80;15.40;;;;;;;2.77;73.74;101445.69;127191;1299;107598;-86
2022/11/30 09:51:53;;;;;;;26.80;16.60;;;;;;;2.79;73.85;101447.90;127179;1296;107600;-87
2022/11/30 09:54:57;;;;;;;35.30;20.50;;;;;;;2.82;74.00;101443.52;127068;1296;107633;-87
2022/11/30 09:58:03;;;;;;;30.40;17.70;;;;;;;2.82;73.73;101445.64;127137;1299;107005;-85
2022/11/30 10:01:16;;;;;;;28.60;16.30;;;;;;;2.79;73.87;101440.52;127110;1291;107613;-85
2022/11/30 10:04:23;;;;;;;29.90;18.10;;;;;;;2.84;73.89;101443.62;127035;1296;107590;-82
2022/11/30 10:07:40;;;;;;;37.70;20.00;;;;;;;2.92;73.78;101444.77;127105;1289;106550;-85
2022/11/30 10:10:49;;;;;;;27.00;16.10;;;;;;;2.97;73.69;101445.07;127045;1289;107743;-83
2022/11/30 10:14:09;;;;;;;39.00;21.70;;;;;;;3.05;73.81;101444.53;127114;1292;107555;-87
2022/11/30 10:17:25;;;;;;;39.80;22.10;;;;;;;3.10;73.43;101440.77;127057;1296;107554;-87
2022/11/30 10:20:55;;;;;;;28.70;17.00;;;;;;;3.18;73.35;101445.14;127096;1296;107593;-84
2022/11/30 10:24:28;;;;;;;38.40;21.60;;;;;;;3.19;73.35;101444.37;127081;1291;105449;-87
2022/11/30 10:27:47;;;;;;;29.70;17.40;;;;;;;3.17;73.38;101441.99;126984;1296;107620;-84
2022/11/30 10:30:50;;;;;;;29.90;18.10;;;;;;;3.18;73.45;101438.81;127096;1292;108054;-86
2022/11/30 10:33:58;;;;;;;28.40;17.40;;;;;;;3.15;73.48;101436.62;127075;1276;99143;-85
2022/11/30 10:37:09;;;;;;;28.00;16.30;;;;;;;3.16;73.46;101439.74;127074;1293;107530;-85
2022/11/30 10:40:18;;;;;;;25.80;15.50;;;;;;;3.17;73.32;101438.34;127133;1299;107370;-84
2022/11/30 10:43:28;;;;;;;34.50;20.90;;;;;;;3.17;73.13;101440.77;127066;1296;107400;-83
2022/11/30 10:46:36;;;;;;;38.00;21.60;;;;;;;3.12;73.13;101442.41;127097;1296;107576;-86
2022/11/30 10:49:44;;;;;;;35.00;20.90;;;;;;;3.10;73.38;101438.98;127059;1299;107508;-85
2022/11/30 10:52:51;;;;;;;39.60;22.20;;;;;;;3.11;73.21;101440.86;127021;1292;107648;-84
2022/11/30 10:56:02;;;;;;;39.00;22.30;;;;;;;3.14;73.36;101445.64;127061;1291;107603;-83
2022/11/30 10:59:11;;;;;;;38.90;23.50;;;;;;;3.18;73.28;101442.48;127048;1296;107614;-83
2022/11/30 11:02:34;;;;;;;42.10;23.70;;;;;;;3.18;73.14;101444.77;127087;1294;107664;-84
2022/11/30 11:05:37;;;;;;;50.60;27.90;;;;;;;3.18;72.89;101441.10;127033;1292;107521;-85
2022/11/30 11:08:41;;;;;;;64.80;35.30;;;;;;;3.17;73.14;101442.34;127125;1296;99195;-84
2022/11/30 11:11:44;;;;;;;58.50;31.90;;;;;;;3.17;72.91;101441.11;126984;1296;107509;-86
2022/11/30 11:14:47;;;;;;;50.80;27.30;;;;;;;3.18;72.97;101439.18;127147;1285;99129;-86
2022/11/30 11:17:51;;;;;;;34.10;20.50;;;;;;;3.16;72.78;101437.14;127129;1295;99169;-85
2022/11/30 11:21:02;;;;;;;43.90;22.10;;;;;;;3.11;72.77;101433.34;127074;1299;107581;-84
2022/11/30 11:24:09;;;;;;;46.40;25.50;;;;;;;3.08;72.75;101433.63;127043;1296;107442;-86
2022/11/30 11:27:23;;;;;;;39.80;21.70;;;;;;;3.09;72.67;101434.66;127064;1292;107605;-86
2022/11/30 11:30:30;;;;;;;47.80;25.90;;;;;;;3.07;72.90;101438.23;127006;1295;107526;-86
2022/11/30 11:33:33;;;;;;;85.40;40.40;;;;;;;3.06;73.04;101436.39;126982;1294;107649;-87
2022/11/30 11:36:35;;;;;;;62.30;31.10;;;;;;;3.09;72.79;101434.14;127077;1296;98434;-85
2022/11/30 11:39:38;;;;;;;39.00;22.10;;;;;;;3.11;72.86;101430.52;127092;1296;99134;-85
2022/11/30 11:42:47;;;;;;;35.30;21.20;;;;;;;3.09;72.54;101429.01;127156;1275;98062;-84
2022/11/30 11:46:08;;;;;;;27.90;17.00;;;;;;;3.07;72.76;101432.64;127206;1294;107564;-85
2022/11/30 11:49:22;;;;;;;28.10;16.70;;;;;;;3.07;72.95;101432.31;127025;1296;107383;-85
2022/11/30 11:52:24;;;;;;;28.20;17.30;;;;;;;3.08;72.66;101432.61;126997;1292;107318;-83
2022/11/30 11:55:27;;;;;;;30.40;18.10;;;;;;;3.07;72.80;101428.98;127024;1286;98156;-85
2022/11/30 11:58:40;;;;;;;32.00;19.00;;;;;;;3.06;72.92;101430.24;127103;1286;98053;-86
2022/11/30 12:01:54;;;;;;;32.10;18.40;;;;;;;3.07;72.87;101426.82;127137;1296;107566;-84
2022/11/30 12:05:02;;;;;;;30.40;17.80;;;;;;;3.15;72.93;101430.50;127140;1294;107571;-85
2022/11/30 12:08:14;;;;;;;32.60;19.10;;;;;;;3.23;72.64;101428.71;127170;1296;107595;-84
2022/11/30 12:11:20;;;;;;;37.70;21.50;;;;;;;3.30;72.78;101427.12;127138;1296;107622;-86
2022/11/30 12:14:25;;;;;;;40.20;23.40;;;;;;;3.35;72.72;101427.39;127069;1296;107638;-84
2022/11/30 12:17:46;;;;;;;36.50;21.40;;;;;;;3.38;72.64;101426.21;127154;1296;107542;-85
2022/11/30 12:20:56;;;;;;;41.80;22.90;;;;;;;3.36;72.56;101430.33;127077;1292;107596;-86
2022/11/30 12:24:26;;;;;;;42.40;23.50;;;;;;;3.32;72.46;101433.86;127135;1299;107564;-86
2022/11/30 12:27:38;;;;;;;43.60;23.80;;;;;;;3.31;72.49;101435.30;127105;1290;108647;-84
2022/11/30 12:30:49;;;;;;;40.10;23.20;;;;;;;3.29;72.47;101437.86;127073;1294;107576;-82
2022/11/30 12:34:06;;;;;;;51.80;27.90;;;;;;;3.25;72.41;101436.83;127015;1295;107010;-84
2022/11/30 12:37:19;;;;;;;62.70;32.50;;;;;;;3.23;72.49;101435.04;127025;1300;107626;-84
2022/11/30 12:40:31;;;;;;;;;;;;;;;3.20;72.54;101438.71;127087;1296;107594;-85
2022/11/30 12:43:46;;;;;;;50.20;26.40;;;;;;;3.16;72.60;101440.27;127075;1296;107554;-84
2022/11/30 12:46:57;;;;;;;52.60;28.60;;;;;;;3.13;72.78;101445.73;127122;1295;107364;-84
2022/11/30 12:50:18;;;;;;;90.70;51.10;;;;;;;3.10;72.58;101447.61;127191;1294;107518;-86
2022/11/30 12:53:28;;;;;;;57.10;30.00;;;;;;;3.05;72.76;101452.60;127255;1293;107556;-86
2022/11/30 12:56:39;;;;;;;50.70;27.60;;;;;;;3.02;72.58;101452.77;127110;1286;107636;-85
2022/11/30 12:59:51;;;;;;;57.30;30.20;;;;;;;2.99;72.50;101456.59;127126;1294;107486;-84
2022/11/30 13:03:09;;;;;;;63.90;34.50;;;;;;;2.96;72.48;101459.58;126937;1296;107586;-85
2022/11/30 13:06:17;;;;;;;56.90;30.70;;;;;;;2.92;72.50;101458.50;126921;1296;106508;-85
2022/11/30 13:09:26;;;;;;;46.20;25.90;;;;;;;2.86;72.63;101462.66;127155;1288;107561;-86
2022/11/30 13:12:34;;;;;;;58.30;29.70;;;;;;;2.84;72.74;101460.31;127076;1290;107554;-85
2022/11/30 13:15:39;;;;;;;55.80;30.20;;;;;;;2.82;72.65;101460.09;127131;1291;107470;-83
2022/11/30 13:18:42;;;;;;;57.80;29.90;;;;;;;2.81;72.63;101457.48;127111;1292;107227;-83
2022/11/30 13:21:52;;;;;;;61.70;30.30;;;;;;;2.81;72.72;101460.83;127039;1296;107762;-84
2022/11/30 13:25:02;;;;;;;61.50;31.50;;;;;;;2.75;72.66;101456.89;126942;1299;107560;-84
2022/11/30 13:28:13;;;;;;;59.30;28.30;;;;;;;2.71;72.84;101454.59;127027;1294;107467;-86
2022/11/30 13:31:20;;;;;;;62.30;30.10;;;;;;;2.75;72.92;101452.66;127050;1292;107445;-86
2022/11/30 13:34:26;;;;;;;70.20;34.70;;;;;;;2.81;72.82;101448.15;127126;1291;107417;-86
2022/11/30 13:37:29;;;;;;;52.00;27.40;;;;;;;2.86;73.00;101448.41;126997;1296;107198;-84
2022/11/30 13:40:32;;;;;;;44.80;24.20;;;;;;;2.88;72.69;101448.50;126923;1296;107571;-84
2022/11/30 13:43:40;;;;;;;46.10;26.70;;;;;;;2.91;72.85;101448.02;127058;1299;97998;-84
2022/11/30 13:46:49;;;;;;;52.10;29.90;;;;;;;2.92;72.67;101446.36;126982;1296;107816;-84
2022/11/30 13:49:56;;;;;;;59.50;28.10;;;;;;;2.91;72.80;101448.38;127040;1296;107512;-86
2022/11/30 13:53:22;;;;;;;42.40;22.70;;;;;;;2.86;72.66;101450.17;127119;1295;107131;-86
2022/11/30 13:56:34;;;;;;;58.00;31.10;;;;;;;2.80;72.68;101455.58;126832;1294;106465;-83
2022/11/30 13:59:45;;;;;;;59.20;32.20;;;;;;;2.73;72.65;101458.00;127086;1289;107602;-83
2022/11/30 14:02:53;;;;;;;63.60;31.80;;;;;;;2.69;73.12;101461.20;127038;1295;106574;-84
2022/11/30 14:05:59;;;;;;;60.10;29.60;;;;;;;2.66;73.02;101465.56;127010;1295;107402;-82